Time;durP1;ratioP1;P1;durP2;ratioP2;P2;SDS_P1;SDS_P2;PMS_P1;PMS_P2;Temp;Humidity;BMP_temperature;BMP_pressure;BME280_temperature;BME280_humidity;BME280_pressure;Samples;Min_cycle;Max_cycle;Signal;HPM_P1;HPM_P2
2021/12/23 00:02:04;;;;;;;;;26.75;24.25;;;;;0.46;82.91;101540.00;5008049;28;11680;-72
2021/12/23 00:04:31;;;;;;;;;30.75;25.00;;;;;0.47;82.61;101552.34;5005507;28;11587;-70
2021/12/23 00:06:58;;;;;;;;;18.50;17.50;;;;;0.50;82.48;101546.84;5008954;28;11660;-70
2021/12/23 00:09:34;;;;;;;;;24.25;20.25;;;;;0.51;82.01;101542.34;5009267;28;11536;-70
2021/12/23 00:12:01;;;;;;;;;23.75;20.75;;;;;0.50;82.01;101532.66;5008620;28;11561;-69
2021/12/23 00:14:27;;;;;;;;;25.50;21.50;;;;;0.43;81.58;101507.38;5003905;28;11540;-73
2021/12/23 00:17:06;;;;;;;;;24.25;21.00;;;;;0.48;82.45;101511.44;5003603;28;11637;-73
2021/12/23 00:19:47;;;;;;;;;27.75;26.25;;;;;0.49;81.27;101510.47;4989188;28;13062;-71
2021/12/23 00:24:59;;;;;;;;;28.75;25.50;;;;;0.49;81.01;101521.13;5006394;28;11567;-69
2021/12/23 00:27:25;;;;;;;;;22.50;17.50;;;;;0.51;81.05;101513.91;5007940;28;11664;-70
2021/12/23 00:29:52;;;;;;;;;23.25;20.50;;;;;0.55;80.72;101526.03;4989981;28;11562;-71
2021/12/23 00:32:18;;;;;;;;;29.25;24.00;;;;;0.54;80.50;101520.81;5007425;28;12336;-71
2021/12/23 00:34:44;;;;;;;;;32.00;23.00;;;;;0.53;80.84;101517.31;5007427;28;11605;-70
2021/12/23 00:37:12;;;;;;;;;26.00;23.75;;;;;0.55;80.81;101522.53;4989881;28;11558;-74
2021/12/23 00:39:38;;;;;;;;;25.50;25.00;;;;;0.56;81.07;101516.25;5006928;28;11526;-72
2021/12/23 00:42:07;;;;;;;;;19.00;17.00;;;;;0.59;80.97;101513.34;5007345;28;11551;-69
2021/12/23 00:44:35;;;;;;;;;23.50;20.25;;;;;0.56;80.77;101518.91;5008718;28;11541;-70
2021/12/23 00:47:03;;;;;;;;;27.00;21.25;;;;;0.60;80.70;101534.56;5007954;28;11640;-69
2021/12/23 00:49:29;;;;;;;;;29.75;23.50;;;;;0.62;81.14;101534.44;5007879;28;11562;-70
2021/12/23 00:51:57;;;;;;;;;20.50;17.50;;;;;0.66;80.05;101519.09;5008191;28;11552;-70
2021/12/23 00:54:24;;;;;;;;;23.00;20.50;;;;;0.69;79.67;101508.22;4989436;28;11627;-69
2021/12/23 00:56:51;;;;;;;;;21.75;18.25;;;;;0.78;79.98;101505.75;5008202;28;11709;-72
2021/12/23 00:59:18;;;;;;;;;24.25;21.75;;;;;0.73;79.74;101491.91;5007993;28;11543;-69
2021/12/23 01:01:47;;;;;;;;;24.00;22.00;;;;;0.68;78.95;101479.88;5008058;28;12300;-72
2021/12/23 01:04:15;;;;;;;;;28.75;24.00;;;;;0.73;79.07;101475.06;5008063;28;11581;-69
2021/12/23 01:06:42;;;;;;;;;26.50;22.25;;;;;0.67;78.37;101467.50;5007352;28;11650;-70
2021/12/23 01:09:09;;;;;;;;;23.75;20.25;;;;;0.73;78.37;101465.25;5007125;28;12277;-70
2021/12/23 01:11:36;;;;;;;;;24.50;16.25;;;;;0.73;78.47;101459.06;5006638;28;12226;-70
2021/12/23 01:14:28;;;;;;;;;18.75;17.75;;;;;0.75;78.41;101473.16;5005686;28;11538;-69
2021/12/23 01:19:27;;;;;;;;;26.00;18.00;;;;;0.73;78.27;101443.94;5007455;28;11535;-70
2021/12/23 01:21:54;;;;;;;;;28.25;26.50;;;;;0.72;78.66;101444.03;4985553;28;11652;-70
2021/12/23 01:24:23;;;;;;;;;33.25;28.25;;;;;0.73;78.32;101438.59;5007405;28;11613;-72
2021/12/23 01:26:49;;;;;;;;;36.25;32.50;;;;;0.69;77.60;101433.63;4989251;28;11563;-69
2021/12/23 01:29:15;;;;;;;;;27.25;22.50;;;;;0.75;78.13;101427.88;5006908;28;11544;-69
2021/12/23 01:31:43;;;;;;;;;34.75;29.50;;;;;0.66;77.77;101410.72;5005627;28;11568;-70
2021/12/23 01:34:09;;;;;;;;;32.75;27.50;;;;;0.62;78.02;101409.22;4997531;28;11654;-69
2021/12/23 01:36:36;;;;;;;;;25.00;23.25;;;;;0.63;78.57;101405.59;5006897;28;11655;-69
2021/12/23 01:39:03;;;;;;;;;30.25;29.50;;;;;0.60;77.88;101395.19;5006645;28;11531;-70
2021/12/23 01:41:30;;;;;;;;;32.75;29.75;;;;;0.57;77.67;101401.56;5007875;28;11693;-70
2021/12/23 01:43:57;;;;;;;;;37.50;31.50;;;;;0.65;77.91;101405.50;5004586;28;11663;-71
2021/12/23 01:46:24;;;;;;;;;30.75;26.50;;;;;0.67;78.13;101422.22;5005669;28;11530;-70
2021/12/23 01:48:52;;;;;;;;;32.25;30.25;;;;;0.64;78.17;101417.09;5006909;28;11562;-72
2021/12/23 01:51:18;;;;;;;;;33.00;29.75;;;;;0.64;77.64;101417.97;5006681;28;11705;-73
2021/12/23 01:53:45;;;;;;;;;27.50;23.00;;;;;0.67;77.64;101415.06;5003575;28;11564;-73
2021/12/23 01:56:11;;;;;;;;;31.00;23.75;;;;;0.70;77.42;101414.00;5002350;28;11619;-73
2021/12/23 01:58:40;;;;;;;;;33.50;31.25;;;;;0.71;77.26;101397.91;5002233;28;11573;-73
2021/12/23 02:01:08;;;;;;;;;37.75;30.75;;;;;0.72;77.37;101404.91;4998571;28;11493;-71
2021/12/23 02:03:36;;;;;;;;;37.00;24.25;;;;;0.70;77.13;101401.53;4985645;28;11591;-71
2021/12/23 02:06:03;;;;;;;;;40.50;34.75;;;;;0.71;77.48;101399.72;4985723;28;11666;-73
2021/12/23 02:08:36;;;;;;;;;35.50;30.25;;;;;0.70;77.36;101392.69;5003129;28;11581;-72
2021/12/23 02:11:06;;;;;;;;;39.00;30.75;;;;;0.74;77.54;101383.50;5003539;28;12379;-71
2021/12/23 02:13:33;;;;;;;;;41.75;34.50;;;;;0.75;77.56;101371.91;5004231;28;11599;-72
2021/12/23 02:16:01;;;;;;;;;37.25;34.00;;;;;0.77;77.18;101383.28;5001640;28;11684;-73
2021/12/23 02:18:29;;;;;;;;;36.00;33.50;;;;;0.71;77.08;101373.06;5002474;28;11655;-70
2021/12/23 02:20:57;;;;;;;;;35.00;31.50;;;;;0.72;77.24;101356.97;5002677;28;11646;-71
2021/12/23 02:23:24;;;;;;;;;36.50;29.25;;;;;0.68;77.08;101351.97;5005714;28;11635;-73
2021/12/23 02:25:51;;;;;;;;;39.00;29.75;;;;;0.70;77.66;101356.22;4985388;28;11514;-72
2021/12/23 02:28:19;;;;;;;;;42.75;35.00;;;;;0.73;76.85;101349.81;5004096;28;11566;-71
2021/12/23 02:30:51;;;;;;;;;36.25;32.25;;;;;0.67;77.24;101355.59;4968766;28;11707;-72
2021/12/23 02:33:23;;;;;;;;;33.50;27.25;;;;;0.66;77.78;101354.75;4980094;28;11587;-72
2021/12/23 02:35:51;;;;;;;;;45.50;33.75;;;;;0.68;77.83;101351.97;4983484;28;11616;-73
2021/12/23 02:38:18;;;;;;;;;32.00;28.75;;;;;0.69;77.72;101351.00;4985455;28;11560;-73
2021/12/23 02:40:45;;;;;;;;;25.75;23.75;;;;;0.67;77.79;101351.13;5002410;28;11687;-71
2021/12/23 02:43:22;;;;;;;;;38.75;35.75;;;;;0.69;78.20;101356.34;4984574;28;11668;-73
2021/12/23 02:45:51;;;;;;;;;43.25;37.50;;;;;0.66;77.88;101348.56;5002993;28;11527;-73
2021/12/23 02:48:22;;;;;;;;;33.25;28.25;;;;;0.64;77.82;101347.84;5002331;28;11553;-72
2021/12/23 02:50:52;;;;;;;;;41.75;35.50;;;;;0.61;78.11;101343.59;5001022;28;11626;-73
2021/12/23 02:53:19;;;;;;;;;37.25;31.50;;;;;0.68;78.14;101343.97;5002201;28;11582;-72
2021/12/23 02:55:46;;;;;;;;;29.50;25.00;;;;;0.69;78.05;101341.22;5003480;28;11641;-73
2021/12/23 02:58:13;;;;;;;;;37.75;28.25;;;;;0.65;78.01;101326.41;4984089;28;11686;-71
2021/12/23 03:00:42;;;;;;;;;28.25;25.25;;;;;0.68;78.45;101334.19;4983552;28;11520;-70
2021/12/23 03:03:09;;;;;;;;;27.00;23.25;;;;;0.67;78.26;101316.50;4967917;28;11128;-72
2021/12/23 03:05:35;;;;;;;;;34.00;34.00;;;;;0.63;78.00;101307.03;4987263;28;11716;-73
2021/12/23 03:08:03;;;;;;;;;41.75;35.50;;;;;0.57;78.27;101307.50;5004209;28;12352;-73
2021/12/23 03:10:29;;;;;;;;;42.75;33.25;;;;;0.55;78.49;101293.44;4986204;28;11627;-73
2021/12/23 03:12:56;;;;;;;;;41.25;34.50;;;;;0.53;78.61;101272.25;4992692;28;11566;-73
2021/12/23 03:15:23;;;;;;;;;39.75;31.00;;;;;0.52;78.68;101261.69;5004559;28;11614;-72
2021/12/23 03:17:49;;;;;;;;;34.25;33.00;;;;;0.48;79.00;101253.06;5003817;28;11634;-73
2021/12/23 03:20:16;;;;;;;;;35.75;29.00;;;;;0.48;79.16;101260.19;5004286;28;11594;-73
2021/12/23 03:22:43;;;;;;;;;27.75;25.25;;;;;0.48;78.92;101269.03;5004971;28;11666;-73
2021/12/23 03:25:09;;;;;;;;;34.00;29.00;;;;;0.45;78.88;101271.09;5001509;28;11653;-72
2021/12/23 03:27:36;;;;;;;;;29.75;27.25;;;;;0.46;79.22;101278.97;5004361;28;12286;-73
2021/12/23 03:30:05;;;;;;;;;39.50;33.50;;;;;0.47;78.87;101291.31;4986614;28;11552;-70
2021/12/23 03:32:31;;;;;;;;;41.50;37.75;;;;;0.46;79.04;101286.09;4966730;28;11688;-72
2021/12/23 03:34:58;;;;;;;;;34.00;29.75;;;;;0.43;79.27;101286.34;5001830;28;11651;-73
2021/12/23 03:37:24;;;;;;;;;52.00;42.50;;;;;0.43;79.49;101284.53;5001872;28;11578;-73
2021/12/23 03:39:53;;;;;;;;;34.50;31.50;;;;;0.40;79.52;101294.56;5001683;28;11567;-71
2021/12/23 03:42:20;;;;;;;;;39.00;32.00;;;;;0.41;79.80;101294.44;4982165;28;12440;-71
2021/12/23 03:44:47;;;;;;;;;32.00;27.50;;;;;0.29;79.71;101298.00;5001791;28;12286;-72
2021/12/23 03:47:13;;;;;;;;;32.50;25.50;;;;;0.36;80.54;101304.59;5003109;28;11573;-72
2021/12/23 03:49:40;;;;;;;;;36.75;26.00;;;;;0.34;80.22;101306.50;5002519;28;11552;-71
2021/12/23 03:52:07;;;;;;;;;36.00;34.00;;;;;0.36;80.29;101304.59;4999300;28;11700;-69
2021/12/23 03:54:33;;;;;;;;;37.25;36.25;;;;;0.37;80.40;101300.09;4986892;28;11662;-73
2021/12/23 03:56:59;;;;;;;;;36.75;32.50;;;;;0.41;80.68;101309.56;5001510;28;11695;-73
2021/12/23 03:59:26;;;;;;;;;24.50;23.25;;;;;0.40;80.45;101299.88;5001844;28;12312;-73
2021/12/23 04:01:52;;;;;;;;;34.75;33.00;;;;;0.33;80.50;101299.50;4983496;28;11634;-73
2021/12/23 04:04:19;;;;;;;;;38.25;31.00;;;;;0.33;80.75;101291.50;5003310;28;11551;-74
2021/12/23 04:06:46;;;;;;;;;40.50;33.00;;;;;0.32;80.70;101281.81;5002689;28;11557;-73
2021/12/23 04:09:12;;;;;;;;;25.00;24.25;;;;;0.28;81.02;101270.53;5002466;28;11556;-71
2021/12/23 04:11:38;;;;;;;;;31.25;31.25;;;;;0.24;81.02;101260.19;4988632;28;11585;-73
2021/12/23 04:14:05;;;;;;;;;30.75;26.75;;;;;0.22;81.26;101259.47;5006485;28;11661;-73
2021/12/23 04:16:31;;;;;;;;;35.25;31.75;;;;;0.17;81.38;101261.63;5006879;28;11650;-73
2021/12/23 04:18:58;;;;;;;;;35.25;30.00;;;;;0.21;81.57;101257.75;4989799;28;11615;-73
2021/12/23 04:21:24;;;;;;;;;34.50;33.00;;;;;0.23;81.74;101251.38;4990254;28;11691;-73
2021/12/23 04:23:52;;;;;;;;;39.25;31.25;;;;;0.22;81.92;101248.81;5007235;28;11571;-73
2021/12/23 04:26:18;;;;;;;;;28.50;26.25;;;;;0.18;81.80;101250.00;4984231;28;11611;-72
2021/12/23 04:28:46;;;;;;;;;34.25;29.25;;;;;0.21;81.98;101263.94;5007323;28;11623;-70
2021/12/23 04:31:18;;;;;;;;;33.25;32.00;;;;;0.20;82.43;101270.22;5003149;28;11040;-71
2021/12/23 04:33:48;;;;;;;;;46.75;39.75;;;;;0.16;83.04;101284.72;4984455;28;11691;-71
2021/12/23 04:36:15;;;;;;;;;38.50;36.75;;;;;0.15;82.68;101263.53;5006405;28;11548;-73
2021/12/23 04:38:43;;;;;;;;;42.50;35.25;;;;;0.13;82.91;101263.66;4988336;28;11540;-73
2021/12/23 04:41:10;;;;;;;;;50.25;36.00;;;;;0.13;83.76;101260.16;4987567;28;11576;-73
2021/12/23 04:43:37;;;;;;;;;41.00;34.00;;;;;0.14;83.72;101251.19;5005753;28;11599;-73
2021/12/23 04:46:04;;;;;;;;;35.00;31.00;;;;;0.14;83.62;101244.06;5003639;28;11558;-72
2021/12/23 04:48:32;;;;;;;;;42.00;38.25;;;;;0.09;83.65;101243.56;5002721;28;15238;-73
2021/12/23 04:51:00;;;;;;;;;49.50;44.25;;;;;0.07;84.35;101231.31;4985564;28;11661;-73
2021/12/23 04:53:26;;;;;;;;;46.50;38.50;;;;;0.10;84.42;101239.94;4984786;28;11716;-73
2021/12/23 04:55:54;;;;;;;;;48.00;41.50;;;;;0.11;84.43;101235.44;5003720;28;11657;-71
2021/12/23 04:58:20;;;;;;;;;55.50;43.50;;;;;0.10;84.68;101239.06;5005148;28;11693;-72
2021/12/23 05:00:48;;;;;;;;;42.00;38.00;;;;;0.20;84.71;101246.25;5006099;28;11629;-72
2021/12/23 05:03:17;;;;;;;;;51.00;45.00;;;;;0.07;84.91;101245.47;4984460;28;11590;-73
2021/12/23 05:05:44;;;;;;;;;54.50;46.75;;;;;0.07;85.13;101237.50;5006338;28;11559;-73
2021/12/23 05:08:12;;;;;;;;;46.50;38.00;;;;;0.07;85.56;101226.00;5003623;28;11601;-73
2021/12/23 05:10:39;;;;;;;;;56.75;41.25;;;;;0.07;85.77;101224.19;4987477;28;11621;-72
2021/12/23 05:13:06;;;;;;;;;47.00;38.25;;;;;0.08;85.61;101222.38;5005239;28;11576;-71
2021/12/23 05:15:33;;;;;;;;;48.75;40.00;;;;;0.05;85.72;101194.16;4986388;28;11698;-73
2021/12/23 05:18:00;;;;;;;;;48.75;41.50;;;;;0.08;86.10;101203.75;5003905;28;11560;-73
2021/12/23 05:20:27;;;;;;;;;59.00;47.75;;;;;0.07;86.11;101194.91;4985701;28;11545;-73
2021/12/23 05:22:55;;;;;;;;;54.25;42.50;;;;;0.07;86.21;101168.28;5001967;28;11732;-73
2021/12/23 05:25:21;;;;;;;;;44.25;40.50;;;;;0.10;86.33;101161.88;5004801;28;11520;-73
2021/12/23 05:27:52;;;;;;;;;44.00;34.75;;;;;0.14;86.61;101177.50;5005395;28;11665;-73
2021/12/23 05:30:19;;;;;;;;;40.00;35.00;;;;;0.15;86.22;101157.06;5003327;28;11550;-70
2021/12/23 05:32:46;;;;;;;;;54.25;45.50;;;;;0.18;86.22;101156.84;5004144;28;11691;-73
2021/12/23 05:35:16;;;;;;;;;62.25;48.00;;;;;0.14;86.28;101156.22;5003988;28;11570;-73
2021/12/23 05:37:42;;;;;;;;;43.50;38.25;;;;;0.17;86.46;101155.97;5005101;28;12254;-72
2021/12/23 05:40:11;;;;;;;;;57.50;47.75;;;;;0.15;86.21;101165.03;5006888;28;11593;-73
2021/12/23 05:42:38;;;;;;;;;59.50;44.25;;;;;0.14;86.29;101161.53;5005574;28;12309;-73
2021/12/23 05:45:05;;;;;;;;;62.75;45.00;;;;;0.10;86.31;101173.38;4994450;28;11685;-70
2021/12/23 05:47:31;;;;;;;;;50.00;37.25;;;;;0.15;86.87;101149.06;4992659;28;12300;-72
2021/12/23 05:49:57;;;;;;;;;43.00;36.75;;;;;0.18;86.84;101143.53;4982952;28;11719;-72
2021/12/23 05:52:24;;;;;;;;;45.00;38.00;;;;;0.23;86.28;101150.19;4987192;28;11644;-73
2021/12/23 05:54:50;;;;;;;;;45.50;30.00;;;;;0.21;86.64;101151.28;5003540;28;11705;-73
2021/12/23 05:57:17;;;;;;;;;48.25;38.25;;;;;0.19;86.73;101159.38;4986624;28;11564;-73
2021/12/23 05:59:44;;;;;;;;;54.00;47.75;;;;;0.23;86.96;101144.88;5003647;28;11580;-72
2021/12/23 06:02:10;;;;;;;;;44.00;37.25;;;;;0.26;86.64;101154.47;5004460;28;12365;-73
2021/12/23 06:04:37;;;;;;;;;39.00;33.25;;;;;0.27;86.69;101162.34;4985894;28;11595;-73
2021/12/23 06:07:03;;;;;;;;;49.50;42.50;;;;;0.20;86.26;101154.91;4985498;28;11550;-72
2021/12/23 06:09:30;;;;;;;;;47.50;42.75;;;;;0.27;86.74;101142.84;4988700;28;11661;-73
2021/12/23 06:11:57;;;;;;;;;37.25;36.50;;;;;0.27;86.36;101145.50;4984428;28;11587;-73
2021/12/23 06:14:24;;;;;;;;;54.00;44.50;;;;;0.27;86.82;101157.00;5001525;28;11722;-71
2021/12/23 06:16:50;;;;;;;;;47.50;42.25;;;;;0.24;86.80;101154.56;5002930;28;11563;-71
2021/12/23 06:19:17;;;;;;;;;41.00;36.50;;;;;0.25;87.24;101174.06;4986279;28;12249;-72
2021/12/23 06:21:44;;;;;;;;;47.75;44.00;;;;;0.22;87.83;101168.94;5002575;28;11589;-72
2021/12/23 06:24:10;;;;;;;;;47.00;40.75;;;;;0.28;88.50;101165.84;4986177;28;11706;-72
2021/12/23 06:26:37;;;;;;;;;50.50;42.25;;;;;0.31;88.54;101157.63;4967024;28;11571;-73
2021/12/23 06:29:03;;;;;;;;;49.50;41.75;;;;;0.31;88.84;101157.63;4998372;28;11552;-72
2021/12/23 06:31:30;;;;;;;;;35.25;28.00;;;;;0.29;88.90;101149.75;4984091;28;11538;-72
2021/12/23 06:33:57;;;;;;;;;49.00;40.50;;;;;0.28;89.23;101149.88;5004275;28;11666;-72
2021/12/23 06:36:23;;;;;;;;;35.00;27.50;;;;;0.25;89.10;101155.44;4986667;28;11569;-72
2021/12/23 06:38:50;;;;;;;;;38.50;36.50;;;;;0.23;89.49;101144.00;4987123;28;11669;-72
2021/12/23 06:41:18;;;;;;;;;49.25;40.25;;;;;0.28;89.69;101144.53;5004183;28;11620;-71
2021/12/23 06:43:46;;;;;;;;;45.25;43.00;;;;;0.30;89.63;101139.94;5003500;28;12472;-70
2021/12/23 06:46:13;;;;;;;;;44.75;37.00;;;;;0.30;89.76;101147.94;5004221;28;11582;-70
2021/12/23 06:48:40;;;;;;;;;56.00;48.00;;;;;0.30;89.71;101143.47;5004519;28;11866;-72
2021/12/23 06:51:06;;;;;;;;;39.25;32.00;;;;;0.32;90.02;101146.00;5003611;28;11652;-72
2021/12/23 06:53:33;;;;;;;;;48.50;39.25;;;;;0.32;89.99;101132.69;5003836;28;11702;-71
2021/12/23 06:56:00;;;;;;;;;45.00;39.00;;;;;0.31;90.03;101131.00;4987640;28;11579;-71
2021/12/23 06:58:27;;;;;;;;;41.00;33.75;;;;;0.32;90.04;101121.19;5004922;28;11567;-70
2021/12/23 07:00:54;;;;;;;;;50.25;40.00;;;;;0.32;90.13;101110.53;5004518;28;11596;-73
2021/12/23 07:03:24;;;;;;;;;45.50;40.50;;;;;0.30;90.03;101103.53;5003811;28;11586;-72
2021/12/23 07:05:56;;;;;;;;;61.00;43.50;;;;;0.32;90.40;101097.22;5003564;28;12290;-72
2021/12/23 07:08:28;;;;;;;;;50.00;40.00;;;;;0.77;92.36;101092.84;5005726;28;11537;-71
2021/12/23 07:10:55;;;;;;;;;56.25;42.00;;;;;0.53;90.50;101083.13;5005549;28;11659;-71
2021/12/23 07:13:21;;;;;;;;;59.50;46.50;;;;;0.40;90.54;101071.69;5001579;28;11700;-71
2021/12/23 07:15:48;;;;;;;;;50.25;45.00;;;;;0.44;91.20;101074.97;5003950;28;11647;-70
2021/12/23 07:18:14;;;;;;;;;53.00;44.25;;;;;0.37;91.40;101079.09;4986974;28;11615;-70
2021/12/23 07:20:41;;;;;;;;;51.00;44.50;;;;;0.34;91.70;101064.19;4983712;28;11573;-71
2021/12/23 07:23:07;;;;;;;;;55.25;47.50;;;;;0.35;91.80;101070.38;5001853;28;11527;-72
2021/12/23 07:25:35;;;;;;;;;59.75;47.00;;;;;0.34;92.51;101066.00;5004898;28;11623;-71
2021/12/23 07:28:02;;;;;;;;;57.25;47.25;;;;;0.35;93.08;101075.69;5003180;28;11661;-72
2021/12/23 07:30:28;;;;;;;;;57.25;45.50;;;;;0.36;93.15;101077.38;4984515;28;11545;-71
2021/12/23 07:32:54;;;;;;;;;65.25;47.50;;;;;0.39;93.46;101083.31;5003184;28;11611;-73
2021/12/23 07:35:21;;;;;;;;;53.25;43.25;;;;;0.40;93.29;101087.69;5003631;28;11576;-72
2021/12/23 07:37:48;;;;;;;;;57.00;42.00;;;;;0.40;92.83;101090.34;5004324;28;11579;-73
2021/12/23 07:40:17;;;;;;;;;49.75;39.50;;;;;0.36;93.37;101077.38;5005367;28;11570;-71
2021/12/23 07:42:53;;;;;;;;;59.25;46.25;;;;;0.39;93.34;101085.13;4984515;28;11576;-71
2021/12/23 07:45:22;;;;;;;;;58.50;44.50;;;;;0.38;93.81;101091.44;5006012;28;11677;-71
2021/12/23 07:47:48;;;;;;;;;50.75;40.50;;;;;0.35;93.79;101087.19;4984735;28;11538;-71
2021/12/23 07:50:15;;;;;;;;;54.25;44.00;;;;;0.35;94.04;101076.53;5005586;28;12414;-72
2021/12/23 07:52:42;;;;;;;;;42.00;39.00;;;;;0.36;93.98;101064.06;5004153;28;11546;-72
2021/12/23 07:55:08;;;;;;;;;48.25;43.00;;;;;0.41;94.27;101073.41;4982588;28;11588;-70
2021/12/23 07:57:39;;;;;;;;;56.50;46.00;;;;;0.40;94.23;101071.69;5004136;28;12511;-70
2021/12/23 08:00:06;;;;;;;;;56.00;43.50;;;;;0.42;94.00;101068.91;5005638;28;11587;-71
2021/12/23 08:02:39;;;;;;;;;48.75;39.50;;;;;0.35;94.07;101057.91;5006128;28;11558;-71
2021/12/23 08:05:06;;;;;;;;;51.00;44.25;;;;;0.39;94.20;101064.69;4973696;28;12288;-69
2021/12/23 08:07:33;;;;;;;;;53.00;45.00;;;;;0.38;94.26;101070.97;5007032;28;11619;-72
2021/12/23 08:10:00;;;;;;;;;47.25;41.50;;;;;0.42;94.55;101072.44;5006867;28;11550;-71
2021/12/23 08:12:31;;;;;;;;;54.75;44.50;;;;;0.43;94.62;101052.81;5006896;28;11565;-72
2021/12/23 08:14:57;;;;;;;;;50.00;43.25;;;;;0.39;94.90;101053.19;5007610;28;11689;-69
2021/12/23 08:17:33;;;;;;;;;53.50;43.25;;;;;0.36;94.44;101051.59;5004993;28;11624;-73
2021/12/23 08:19:59;;;;;;;;;53.00;44.75;;;;;0.41;94.55;101036.13;5007577;28;11571;-73
2021/12/23 08:22:26;;;;;;;;;52.75;43.00;;;;;0.43;94.65;101047.50;5003844;28;11564;-70
2021/12/23 08:24:52;;;;;;;;;53.75;45.25;;;;;0.42;94.72;101047.63;5005626;28;11663;-69
2021/12/23 08:27:21;;;;;;;;;45.75;39.25;;;;;0.40;94.63;101030.91;5007513;28;11567;-71
2021/12/23 08:29:47;;;;;;;;;43.25;36.50;;;;;0.43;94.88;101041.31;5006440;28;11578;-69
2021/12/23 08:32:14;;;;;;;;;53.50;43.25;;;;;0.42;95.14;101034.28;5004253;28;11572;-70
2021/12/23 08:34:40;;;;;;;;;50.25;33.75;;;;;0.68;95.89;101037.59;5003836;28;11605;-72
2021/12/23 08:37:11;;;;;;;;;45.50;37.50;;;;;0.73;95.91;101040.72;4988423;28;11622;-70
2021/12/23 08:39:39;;;;;;;;;52.25;41.50;;;;;0.58;94.79;101018.81;5005331;28;11564;-76
2021/12/23 08:42:07;;;;;;;;;50.25;36.50;;;;;0.87;95.53;101000.53;5007248;28;11694;-69
2021/12/23 08:44:34;;;;;;;;;47.75;39.00;;;;;0.66;94.26;101021.72;5005949;28;11563;-69
2021/12/23 08:47:00;;;;;;;;;43.50;36.75;;;;;0.59;94.00;101010.72;5003131;28;11688;-70
2021/12/23 08:49:27;;;;;;;;;58.75;46.25;;;;;0.52;93.56;100990.03;5005113;28;11641;-70
2021/12/23 08:51:54;;;;;;;;;39.50;35.75;;;;;0.66;94.33;100997.75;5004548;28;11606;-69
2021/12/23 08:54:20;;;;;;;;;38.00;34.50;;;;;0.54;94.18;100986.25;5002586;28;11563;-70
2021/12/23 08:56:47;;;;;;;;;55.75;44.25;;;;;0.53;94.07;100981.06;5004739;28;11540;-69
2021/12/23 08:59:13;;;;;;;;;45.00;37.75;;;;;0.55;94.43;100971.13;5004111;28;11629;-70
2021/12/23 09:01:42;;;;;;;;;58.75;43.50;;;;;0.47;93.92;100958.41;4988074;28;11572;-70
2021/12/23 09:04:09;;;;;;;;;58.75;44.00;;;;;0.49;94.76;100956.44;4986991;28;11577;-71
2021/12/23 09:06:35;;;;;;;;;53.50;34.50;;;;;1.67;99.18;100953.00;5002715;28;11599;-75
2021/12/23 09:09:03;;;;;;;;;49.25;41.25;;;;;1.94;94.02;100946.31;4990785;28;11556;-69
2021/12/23 09:11:30;;;;;;;;;52.75;44.75;;;;;1.21;90.00;100939.97;5004909;28;12283;-70
2021/12/23 09:13:57;;;;;;;;;50.50;44.75;;;;;0.89;90.42;100932.81;5002920;28;11635;-71
2021/12/23 09:16:23;;;;;;;;;45.50;41.50;;;;;0.77;91.60;100948.94;5002579;28;11572;-70
2021/12/23 09:18:50;;;;;;;;;42.25;39.50;;;;;0.69;92.16;100946.03;5004665;28;11553;-70
2021/12/23 09:21:17;;;;;;;;;48.25;44.25;;;;;0.61;92.75;100938.66;5005666;28;11649;-70
2021/12/23 09:23:59;;;;;;;;;48.75;42.25;;;;;0.64;92.92;100924.25;5005745;28;11562;-70
2021/12/23 09:26:26;;;;;;;;;46.50;43.00;;;;;0.65;93.53;100924.13;5004576;28;11597;-70
2021/12/23 09:34:08;;;;;;;;;42.75;37.50;;;;;0.57;94.16;100895.44;5005652;28;11538;-70
2021/12/23 09:36:37;;;;;;;;;48.25;44.50;;;;;0.57;94.04;100911.44;5005163;28;11592;-68
2021/12/23 09:39:07;;;;;;;;;45.50;35.25;;;;;1.69;98.46;100896.84;5004585;28;11713;-70
2021/12/23 09:41:38;;;;;;;;;44.75;35.50;;;;;1.09;93.08;100893.84;5005850;28;11583;-73
2021/12/23 09:44:07;;;;;;;;;48.75;39.75;;;;;0.89;92.37;100886.66;5005581;28;11561;-70
2021/12/23 09:47:49;;;;;;;;;52.75;40.75;;;;;0.73;92.56;100881.72;5028577;28;13534;-70
2021/12/23 09:50:20;;;;;;;;;53.00;41.50;;;;;0.69;92.83;100887.44;5020542;28;11624;-70
2021/12/23 09:52:50;;;;;;;;;51.50;43.00;;;;;0.66;93.00;100882.34;5010698;28;12405;-70
2021/12/23 09:55:20;;;;;;;;;48.25;40.00;;;;;0.81;93.58;100879.28;5005178;28;11595;-70
2021/12/23 09:57:48;;;;;;;;;56.00;44.75;;;;;0.73;93.30;100887.03;5001210;28;11689;-70
2021/12/23 10:00:17;;;;;;;;;48.50;41.25;;;;;0.68;93.36;100896.38;5003273;28;11602;-69
2021/12/23 10:02:44;;;;;;;;;43.50;37.50;;;;;0.65;93.82;100900.16;5003163;28;11705;-70
2021/12/23 10:05:20;;;;;;;;;41.50;38.00;;;;;0.66;93.88;100893.84;5003663;28;11721;-69
2021/12/23 10:07:48;;;;;;;;;53.25;41.25;;;;;0.67;94.46;100894.69;5002592;28;11628;-69
2021/12/23 10:10:25;;;;;;;;;53.25;43.25;;;;;0.70;94.24;100894.44;5004162;28;11771;-71
2021/12/23 10:26:48;;;;;;;;;53.75;45.25;;;;;0.65;94.09;100900.16;5003531;28;11627;-70
2021/12/23 10:38:34;;;;;;;;;50.25;43.00;;;;;0.81;94.56;100878.44;5002890;28;11585;-69
2021/12/23 10:41:07;;;;;;;;;62.50;45.75;;;;;0.76;94.51;100868.16;5002616;28;11645;-70
2021/12/23 10:43:38;;;;;;;;;40.50;34.50;;;;;0.82;94.58;100867.66;5003272;28;12433;-71
2021/12/23 10:46:16;;;;;;;;;46.00;40.75;;;;;0.81;94.22;100870.47;5017287;28;11683;-70
2021/12/23 10:48:52;;;;;;;;;50.50;38.00;;;;;0.86;94.61;100855.78;5018413;28;11657;-69
2021/12/23 10:51:21;;;;;;;;;46.25;37.25;;;;;0.88;94.75;100856.50;5018293;28;11617;-69
2021/12/23 10:59:09;;;;;;;;;45.75;39.00;;;;;0.96;94.84;100847.84;4990544;28;11646;-70
2021/12/23 11:02:00;;;;;;;;;44.50;41.00;;;;;0.98;94.43;100834.41;4990099;28;11695;-70
2021/12/23 11:04:28;;;;;;;;;40.75;36.25;;;;;1.01;94.37;100839.50;4990271;28;11639;-69
2021/12/23 11:07:14;;;;;;;;;48.50;42.25;;;;;1.01;94.46;100820.84;5004098;28;11734;-69
2021/12/23 11:10:15;;;;;;;;;38.00;35.50;;;;;1.10;95.08;100820.06;4988866;28;11624;-70
2021/12/23 11:41:35;;;;;;;;;41.50;31.75;;;;;1.35;95.55;100787.69;4998326;28;11658;-70
2021/12/23 11:44:04;;;;;;;;;41.25;38.50;;;;;1.39;95.24;100778.44;4988960;28;12430;-70
2021/12/23 11:46:41;;;;;;;;;39.25;35.50;;;;;1.45;95.19;100767.22;4986953;28;11653;-70
2021/12/23 11:49:12;;;;;;;;;55.50;42.25;;;;;1.51;95.30;100758.72;4988436;28;11587;-70
2021/12/23 11:51:51;;;;;;;;;41.50;37.25;;;;;1.51;95.16;100764.06;4988661;28;11608;-72
2021/12/23 11:54:23;;;;;;;;;48.50;35.00;;;;;1.57;95.31;100757.34;4989371;28;11717;-70
2021/12/23 11:56:53;;;;;;;;;53.00;46.25;;;;;1.58;95.24;100752.84;5004211;28;11692;-70
2021/12/23 11:59:20;;;;;;;;;36.75;29.25;;;;;1.61;95.16;100736.56;4989353;28;11602;-70
2021/12/23 12:01:52;;;;;;;;;40.00;31.25;;;;;1.64;95.11;100728.28;4988567;28;11655;-70
2021/12/23 12:04:27;;;;;;;;;48.00;40.75;;;;;1.66;95.26;100723.66;5003791;28;11649;-70
2021/12/23 12:06:55;;;;;;;;;51.25;38.75;;;;;1.69;95.16;100720.72;4987920;28;11638;-70
2021/12/23 12:09:27;;;;;;;;;46.25;42.25;;;;;1.80;95.63;100705.47;4985691;28;12460;-70
2021/12/23 12:11:56;;;;;;;;;40.75;38.50;;;;;1.87;95.41;100691.56;4987849;28;11632;-72
2021/12/23 12:14:41;;;;;;;;;44.75;37.00;;;;;1.89;94.99;100682.44;4989063;28;11712;-69
2021/12/23 12:17:23;;;;;;;;;35.00;32.00;;;;;2.05;95.63;100680.09;4986974;28;12390;-72
2021/12/23 12:19:57;;;;;;;;;40.25;32.50;;;;;2.08;95.17;100670.97;4988545;28;11584;-70
2021/12/23 12:22:55;;;;;;;;;47.50;35.25;;;;;2.02;94.55;100672.38;5003285;28;11691;-72
2021/12/23 12:25:24;;;;;;;;;39.50;37.00;;;;;2.08;94.91;100671.81;5002878;28;11740;-70
2021/12/23 12:28:18;;;;;;;;;54.25;44.25;;;;;2.13;94.89;100669.56;4986965;28;11749;-70
2021/12/23 12:30:59;;;;;;;;;35.50;26.75;;;;;2.10;94.45;100669.00;4987382;28;11615;-74
2021/12/23 12:33:25;;;;;;;;;44.25;39.25;;;;;2.13;94.51;100666.03;4986709;28;11728;-70